Batesville, Mississippi
Current Conditions -  °F | °C
As of 6:35 AM on Sunday 23 Nov 2014 (Local Time) from KUOX Reporting Station
Overcast Overcast  
Wind Chill: 55°   Ceiling: 500
Heat Index: 55°   Visibility: 7mi
Dew Point: 54°   Wind: 12mph
Humidity: 94%   Direction: 140°SE
Pressure: 29.79"   Gusts: 17mph
Location:  34.32°N, 89.95°W
Report Text: KUOX 231235Z AUTO 14010G15KT 7SM OVC005 13/12 A2979 RMK AO2 PWINO PNO
Loading
Personal Weather Stations






























Interactive Weather Map New forecast layout! Learn more

10-Day Weather Forecast

Advertisements
Track Severe Weather on mobile